sensor_id;sensor_type;location;lat;lon;timestamp;P1;durP1;ratioP1;P2;durP2;ratioP2
6251;SDS011;3159;52.414;9.784;2023-04-24T00:00:40;1.63;;;0.97;;
6251;SDS011;3159;52.414;9.784;2023-04-24T00:03:07;0.80;;;0.80;;
6251;SDS011;3159;52.414;9.784;2023-04-24T00:05:34;0.70;;;0.70;;
6251;SDS011;3159;52.414;9.784;2023-04-24T00:08:01;1.73;;;0.80;;
6251;SDS011;3159;52.414;9.784;2023-04-24T00:10:28;1.00;;;0.67;;
6251;SDS011;3159;52.414;9.784;2023-04-24T00:12:57;0.60;;;0.60;;
6251;SDS011;3159;52.414;9.784;2023-04-24T00:15:24;0.80;;;0.80;;
6251;SDS011;3159;52.414;9.784;2023-04-24T00:17:50;1.00;;;0.90;;
6251;SDS011;3159;52.414;9.784;2023-04-24T00:20:18;2.53;;;0.87;;
6251;SDS011;3159;52.414;9.784;2023-04-24T00:22:45;1.43;;;0.70;;
6251;SDS011;3159;52.414;9.784;2023-04-24T00:25:12;2.13;;;0.70;;
6251;SDS011;3159;52.414;9.784;2023-04-24T00:27:39;1.00;;;0.77;;
6251;SDS011;3159;52.414;9.784;2023-04-24T00:30:08;0.60;;;0.60;;
6251;SDS011;3159;52.414;9.784;2023-04-24T00:32:35;0.73;;;0.70;;
6251;SDS011;3159;52.414;9.784;2023-04-24T00:35:02;1.13;;;0.50;;
6251;SDS011;3159;52.414;9.784;2023-04-24T00:37:31;0.77;;;0.70;;
6251;SDS011;3159;52.414;9.784;2023-04-24T00:39:57;0.80;;;0.60;;
6251;SDS011;3159;52.414;9.784;2023-04-24T00:42:25;2.10;;;0.67;;
6251;SDS011;3159;52.414;9.784;2023-04-24T00:44:52;0.93;;;0.80;;
6251;SDS011;3159;52.414;9.784;2023-04-24T00:47:21;0.63;;;0.63;;
6251;SDS011;3159;52.414;9.784;2023-04-24T00:49:48;1.03;;;0.70;;
6251;SDS011;3159;52.414;9.784;2023-04-24T00:52:15;1.27;;;0.70;;
6251;SDS011;3159;52.414;9.784;2023-04-24T00:54:43;3.47;;;0.80;;
6251;SDS011;3159;52.414;9.784;2023-04-24T00:57:10;1.77;;;0.70;;
6251;SDS011;3159;52.414;9.784;2023-04-24T00:59:37;0.90;;;0.60;;
6251;SDS011;3159;52.414;9.784;2023-04-24T01:02:06;1.37;;;0.80;;
6251;SDS011;3159;52.414;9.784;2023-04-24T01:04:35;1.17;;;1.00;;
6251;SDS011;3159;52.414;9.784;2023-04-24T01:07:03;0.93;;;0.70;;
6251;SDS011;3159;52.414;9.784;2023-04-24T01:09:34;1.50;;;0.83;;
6251;SDS011;3159;52.414;9.784;2023-04-24T01:12:02;0.90;;;0.80;;
6251;SDS011;3159;52.414;9.784;2023-04-24T01:14:30;2.30;;;1.23;;
6251;SDS011;3159;52.414;9.784;2023-04-24T01:16:57;1.40;;;0.90;;
6251;SDS011;3159;52.414;9.784;2023-04-24T01:19:25;0.50;;;0.50;;
6251;SDS011;3159;52.414;9.784;2023-04-24T01:21:54;1.73;;;0.90;;
6251;SDS011;3159;52.414;9.784;2023-04-24T01:24:27;0.63;;;0.63;;
6251;SDS011;3159;52.414;9.784;2023-04-24T01:26:54;0.70;;;0.70;;
6251;SDS011;3159;52.414;9.784;2023-04-24T01:29:21;0.90;;;0.90;;
6251;SDS011;3159;52.414;9.784;2023-04-24T01:31:49;1.70;;;0.70;;
6251;SDS011;3159;52.414;9.784;2023-04-24T01:34:16;0.83;;;0.70;;
6251;SDS011;3159;52.414;9.784;2023-04-24T01:36:44;1.80;;;0.60;;
6251;SDS011;3159;52.414;9.784;2023-04-24T01:39:12;0.60;;;0.60;;
6251;SDS011;3159;52.414;9.784;2023-04-24T01:41:42;0.90;;;0.70;;
6251;SDS011;3159;52.414;9.784;2023-04-24T01:44:09;1.13;;;0.70;;
6251;SDS011;3159;52.414;9.784;2023-04-24T01:46:36;1.57;;;0.60;;
6251;SDS011;3159;52.414;9.784;2023-04-24T01:49:04;1.37;;;0.77;;
6251;SDS011;3159;52.414;9.784;2023-04-24T01:51:31;0.50;;;0.50;;
6251;SDS011;3159;52.414;9.784;2023-04-24T01:53:58;1.40;;;0.70;;
6251;SDS011;3159;52.414;9.784;2023-04-24T01:56:25;0.70;;;0.70;;
6251;SDS011;3159;52.414;9.784;2023-04-24T01:58:56;0.60;;;0.60;;
6251;SDS011;3159;52.414;9.784;2023-04-24T02:01:24;0.50;;;0.50;;
6251;SDS011;3159;52.414;9.784;2023-04-24T02:03:51;1.40;;;0.70;;
6251;SDS011;3159;52.414;9.784;2023-04-24T02:06:17;0.60;;;0.60;;
6251;SDS011;3159;52.414;9.784;2023-04-24T02:08:44;1.40;;;0.80;;
6251;SDS011;3159;52.414;9.784;2023-04-24T02:11:11;1.53;;;0.70;;
6251;SDS011;3159;52.414;9.784;2023-04-24T02:13:38;1.13;;;0.90;;
6251;SDS011;3159;52.414;9.784;2023-04-24T02:16:06;0.60;;;0.60;;
6251;SDS011;3159;52.414;9.784;2023-04-24T02:18:33;1.67;;;0.70;;
6251;SDS011;3159;52.414;9.784;2023-04-24T02:21:00;0.60;;;0.60;;
6251;SDS011;3159;52.414;9.784;2023-04-24T02:23:27;0.63;;;0.50;;
6251;SDS011;3159;52.414;9.784;2023-04-24T02:25:54;0.60;;;0.60;;
6251;SDS011;3159;52.414;9.784;2023-04-24T02:28:21;1.40;;;0.50;;
6251;SDS011;3159;52.414;9.784;2023-04-24T02:30:48;0.80;;;0.80;;
6251;SDS011;3159;52.414;9.784;2023-04-24T02:33:16;1.17;;;0.60;;
6251;SDS011;3159;52.414;9.784;2023-04-24T02:35:43;1.13;;;0.70;;
6251;SDS011;3159;52.414;9.784;2023-04-24T02:38:10;0.97;;;0.90;;
6251;SDS011;3159;52.414;9.784;2023-04-24T02:40:37;0.70;;;0.70;;
6251;SDS011;3159;52.414;9.784;2023-04-24T02:43:04;0.67;;;0.67;;
6251;SDS011;3159;52.414;9.784;2023-04-24T02:45:31;0.67;;;0.67;;
6251;SDS011;3159;52.414;9.784;2023-04-24T02:47:59;1.20;;;0.80;;
6251;SDS011;3159;52.414;9.784;2023-04-24T02:50:28;0.90;;;0.60;;
6251;SDS011;3159;52.414;9.784;2023-04-24T02:52:54;0.70;;;0.70;;
6251;SDS011;3159;52.414;9.784;2023-04-24T02:55:21;0.53;;;0.53;;
6251;SDS011;3159;52.414;9.784;2023-04-24T02:57:48;0.70;;;0.70;;
6251;SDS011;3159;52.414;9.784;2023-04-24T03:00:16;0.80;;;0.77;;
6251;SDS011;3159;52.414;9.784;2023-04-24T03:02:42;0.73;;;0.73;;
6251;SDS011;3159;52.414;9.784;2023-04-24T03:05:09;1.40;;;0.70;;
6251;SDS011;3159;52.414;9.784;2023-04-24T03:07:38;0.60;;;0.60;;
6251;SDS011;3159;52.414;9.784;2023-04-24T03:10:06;1.40;;;0.60;;
6251;SDS011;3159;52.414;9.784;2023-04-24T03:12:33;0.90;;;0.63;;
6251;SDS011;3159;52.414;9.784;2023-04-24T03:15:00;0.50;;;0.50;;
6251;SDS011;3159;52.414;9.784;2023-04-24T03:17:27;0.73;;;0.73;;
6251;SDS011;3159;52.414;9.784;2023-04-24T03:19:54;0.70;;;0.70;;
6251;SDS011;3159;52.414;9.784;2023-04-24T03:22:21;1.17;;;0.50;;
6251;SDS011;3159;52.414;9.784;2023-04-24T03:24:50;0.60;;;0.60;;
6251;SDS011;3159;52.414;9.784;2023-04-24T03:27:17;0.40;;;0.40;;
6251;SDS011;3159;52.414;9.784;2023-04-24T03:29:44;0.47;;;0.47;;
6251;SDS011;3159;52.414;9.784;2023-04-24T03:32:10;0.60;;;0.60;;
6251;SDS011;3159;52.414;9.784;2023-04-24T03:34:40;0.70;;;0.60;;
6251;SDS011;3159;52.414;9.784;2023-04-24T03:37:07;0.63;;;0.60;;
6251;SDS011;3159;52.414;9.784;2023-04-24T03:39:34;0.40;;;0.40;;
6251;SDS011;3159;52.414;9.784;2023-04-24T03:42:03;1.43;;;0.50;;
6251;SDS011;3159;52.414;9.784;2023-04-24T03:44:30;1.20;;;0.50;;
6251;SDS011;3159;52.414;9.784;2023-04-24T03:46:57;0.93;;;0.70;;
6251;SDS011;3159;52.414;9.784;2023-04-24T03:49:27;0.50;;;0.50;;
6251;SDS011;3159;52.414;9.784;2023-04-24T03:51:55;0.60;;;0.60;;
6251;SDS011;3159;52.414;9.784;2023-04-24T03:54:22;0.80;;;0.70;;
6251;SDS011;3159;52.414;9.784;2023-04-24T03:56:49;0.60;;;0.57;;
6251;SDS011;3159;52.414;9.784;2023-04-24T03:59:18;0.60;;;0.50;;
6251;SDS011;3159;52.414;9.784;2023-04-24T04:01:45;0.50;;;0.50;;
6251;SDS011;3159;52.414;9.784;2023-04-24T04:04:12;1.87;;;0.70;;
6251;SDS011;3159;52.414;9.784;2023-04-24T04:06:39;1.03;;;0.70;;
6251;SDS011;3159;52.414;9.784;2023-04-24T04:09:07;0.50;;;0.50;;
6251;SDS011;3159;52.414;9.784;2023-04-24T04:11:34;0.50;;;0.50;;
6251;SDS011;3159;52.414;9.784;2023-04-24T04:14:04;1.27;;;0.60;;
6251;SDS011;3159;52.414;9.784;2023-04-24T04:16:33;1.33;;;0.70;;
6251;SDS011;3159;52.414;9.784;2023-04-24T04:19:01;0.70;;;0.70;;
6251;SDS011;3159;52.414;9.784;2023-04-24T04:21:28;1.13;;;0.73;;
6251;SDS011;3159;52.414;9.784;2023-04-24T04:23:56;1.20;;;0.77;;
6251;SDS011;3159;52.414;9.784;2023-04-24T04:26:23;1.17;;;0.73;;
6251;SDS011;3159;52.414;9.784;2023-04-24T04:28:50;0.60;;;0.60;;
6251;SDS011;3159;52.414;9.784;2023-04-24T04:31:18;0.70;;;0.43;;
6251;SDS011;3159;52.414;9.784;2023-04-24T04:33:47;0.83;;;0.70;;
6251;SDS011;3159;52.414;9.784;2023-04-24T04:36:14;0.60;;;0.60;;
6251;SDS011;3159;52.414;9.784;2023-04-24T04:38:42;1.70;;;0.90;;
6251;SDS011;3159;52.414;9.784;2023-04-24T04:41:09;0.70;;;0.70;;
6251;SDS011;3159;52.414;9.784;2023-04-24T04:43:37;0.80;;;0.80;;
6251;SDS011;3159;52.414;9.784;2023-04-24T04:46:05;1.30;;;0.70;;
6251;SDS011;3159;52.414;9.784;2023-04-24T04:48:33;0.80;;;0.80;;
6251;SDS011;3159;52.414;9.784;2023-04-24T04:51:01;3.80;;;0.93;;
6251;SDS011;3159;52.414;9.784;2023-04-24T04:53:28;1.00;;;0.87;;
6251;SDS011;3159;52.414;9.784;2023-04-24T04:55:55;0.80;;;0.70;;
6251;SDS011;3159;52.414;9.784;2023-04-24T04:58:22;2.10;;;0.80;;
6251;SDS011;3159;52.414;9.784;2023-04-24T05:00:49;2.00;;;0.70;;
6251;SDS011;3159;52.414;9.784;2023-04-24T05:03:15;4.13;;;1.00;;
6251;SDS011;3159;52.414;9.784;2023-04-24T05:05:42;0.93;;;0.70;;
6251;SDS011;3159;52.414;9.784;2023-04-24T05:08:11;0.93;;;0.60;;
6251;SDS011;3159;52.414;9.784;2023-04-24T05:10:38;0.93;;;0.70;;
6251;SDS011;3159;52.414;9.784;2023-04-24T05:13:04;0.90;;;0.87;;
6251;SDS011;3159;52.414;9.784;2023-04-24T05:15:31;0.77;;;0.63;;
6251;SDS011;3159;52.414;9.784;2023-04-24T05:17:59;1.83;;;0.77;;
6251;SDS011;3159;52.414;9.784;2023-04-24T05:20:25;2.83;;;0.80;;
6251;SDS011;3159;52.414;9.784;2023-04-24T05:22:52;1.47;;;0.80;;
6251;SDS011;3159;52.414;9.784;2023-04-24T05:25:21;0.80;;;0.80;;
6251;SDS011;3159;52.414;9.784;2023-04-24T05:27:47;0.60;;;0.60;;
6251;SDS011;3159;52.414;9.784;2023-04-24T05:30:14;1.33;;;0.80;;
6251;SDS011;3159;52.414;9.784;2023-04-24T05:32:42;1.27;;;0.60;;
6251;SDS011;3159;52.414;9.784;2023-04-24T05:35:09;1.60;;;0.77;;
6251;SDS011;3159;52.414;9.784;2023-04-24T05:37:41;1.20;;;0.70;;
6251;SDS011;3159;52.414;9.784;2023-04-24T05:40:08;1.00;;;0.80;;
6251;SDS011;3159;52.414;9.784;2023-04-24T05:42:37;1.27;;;0.80;;
6251;SDS011;3159;52.414;9.784;2023-04-24T05:45:05;0.60;;;0.60;;
6251;SDS011;3159;52.414;9.784;2023-04-24T05:47:32;1.50;;;0.70;;
6251;SDS011;3159;52.414;9.784;2023-04-24T05:49:59;1.83;;;0.70;;
6251;SDS011;3159;52.414;9.784;2023-04-24T05:52:26;0.73;;;0.70;;
6251;SDS011;3159;52.414;9.784;2023-04-24T05:54:53;1.37;;;0.80;;
6251;SDS011;3159;52.414;9.784;2023-04-24T05:57:20;0.70;;;0.70;;
6251;SDS011;3159;52.414;9.784;2023-04-24T05:59:49;2.10;;;1.10;;
6251;SDS011;3159;52.414;9.784;2023-04-24T06:02:16;1.10;;;1.00;;
6251;SDS011;3159;52.414;9.784;2023-04-24T06:04:43;2.53;;;0.97;;
6251;SDS011;3159;52.414;9.784;2023-04-24T06:07:10;1.27;;;0.80;;
6251;SDS011;3159;52.414;9.784;2023-04-24T06:09:37;1.10;;;1.00;;
6251;SDS011;3159;52.414;9.784;2023-04-24T06:12:04;1.57;;;1.23;;
6251;SDS011;3159;52.414;9.784;2023-04-24T06:14:33;1.30;;;1.20;;
6251;SDS011;3159;52.414;9.784;2023-04-24T06:17:01;3.80;;;1.23;;
6251;SDS011;3159;52.414;9.784;2023-04-24T06:19:28;1.17;;;1.07;;
6251;SDS011;3159;52.414;9.784;2023-04-24T06:21:55;1.83;;;0.93;;
6251;SDS011;3159;52.414;9.784;2023-04-24T06:24:22;1.00;;;0.90;;
6251;SDS011;3159;52.414;9.784;2023-04-24T06:26:53;2.30;;;1.20;;
6251;SDS011;3159;52.414;9.784;2023-04-24T06:29:20;1.30;;;0.93;;
6251;SDS011;3159;52.414;9.784;2023-04-24T06:31:46;1.30;;;0.97;;
6251;SDS011;3159;52.414;9.784;2023-04-24T06:34:15;1.27;;;1.17;;
6251;SDS011;3159;52.414;9.784;2023-04-24T06:36:42;1.07;;;1.00;;
6251;SDS011;3159;52.414;9.784;2023-04-24T06:39:09;1.13;;;1.00;;
6251;SDS011;3159;52.414;9.784;2023-04-24T06:41:36;1.10;;;1.00;;
6251;SDS011;3159;52.414;9.784;2023-04-24T06:44:02;1.30;;;1.10;;
6251;SDS011;3159;52.414;9.784;2023-04-24T06:46:30;3.27;;;1.30;;
6251;SDS011;3159;52.414;9.784;2023-04-24T06:48:57;1.27;;;1.17;;
6251;SDS011;3159;52.414;9.784;2023-04-24T06:51:25;2.37;;;1.60;;
6251;SDS011;3159;52.414;9.784;2023-04-24T06:53:53;3.10;;;1.57;;
6251;SDS011;3159;52.414;9.784;2023-04-24T06:56:21;2.53;;;1.60;;
6251;SDS011;3159;52.414;9.784;2023-04-24T06:58:48;1.97;;;1.57;;
6251;SDS011;3159;52.414;9.784;2023-04-24T07:01:15;5.73;;;1.90;;
6251;SDS011;3159;52.414;9.784;2023-04-24T07:03:42;3.97;;;2.23;;
6251;SDS011;3159;52.414;9.784;2023-04-24T07:06:09;2.63;;;2.43;;
6251;SDS011;3159;52.414;9.784;2023-04-24T07:08:37;2.43;;;2.20;;
6251;SDS011;3159;52.414;9.784;2023-04-24T07:11:04;2.90;;;2.60;;
6251;SDS011;3159;52.414;9.784;2023-04-24T07:13:31;3.13;;;2.67;;
6251;SDS011;3159;52.414;9.784;2023-04-24T07:16:00;5.03;;;3.37;;
6251;SDS011;3159;52.414;9.784;2023-04-24T07:18:27;4.17;;;3.77;;
6251;SDS011;3159;52.414;9.784;2023-04-24T07:20:54;4.13;;;3.73;;
6251;SDS011;3159;52.414;9.784;2023-04-24T07:23:21;4.97;;;4.47;;
6251;SDS011;3159;52.414;9.784;2023-04-24T07:25:49;5.10;;;3.60;;
6251;SDS011;3159;52.414;9.784;2023-04-24T07:28:16;5.20;;;3.97;;
6251;SDS011;3159;52.414;9.784;2023-04-24T07:30:43;5.53;;;4.13;;
6251;SDS011;3159;52.414;9.784;2023-04-24T07:33:10;5.23;;;4.20;;
6251;SDS011;3159;52.414;9.784;2023-04-24T07:35:38;4.17;;;3.77;;
6251;SDS011;3159;52.414;9.784;2023-04-24T07:38:05;5.67;;;4.40;;
6251;SDS011;3159;52.414;9.784;2023-04-24T07:40:32;4.63;;;3.57;;
6251;SDS011;3159;52.414;9.784;2023-04-24T07:43:00;5.03;;;4.17;;
6251;SDS011;3159;52.414;9.784;2023-04-24T07:45:27;6.77;;;4.00;;
6251;SDS011;3159;52.414;9.784;2023-04-24T07:47:54;4.73;;;4.20;;
6251;SDS011;3159;52.414;9.784;2023-04-24T07:50:21;5.10;;;4.20;;
6251;SDS011;3159;52.414;9.784;2023-04-24T07:52:48;5.27;;;4.57;;
6251;SDS011;3159;52.414;9.784;2023-04-24T07:55:15;5.93;;;4.70;;
6251;SDS011;3159;52.414;9.784;2023-04-24T07:57:42;6.50;;;5.37;;
6251;SDS011;3159;52.414;9.784;2023-04-24T08:00:10;6.47;;;5.47;;
6251;SDS011;3159;52.414;9.784;2023-04-24T08:02:38;5.77;;;5.27;;
6251;SDS011;3159;52.414;9.784;2023-04-24T08:05:05;5.67;;;5.17;;
6251;SDS011;3159;52.414;9.784;2023-04-24T08:07:32;9.40;;;6.17;;
6251;SDS011;3159;52.414;9.784;2023-04-24T08:10:00;7.00;;;5.60;;
6251;SDS011;3159;52.414;9.784;2023-04-24T08:12:27;7.33;;;5.83;;
6251;SDS011;3159;52.414;9.784;2023-04-24T08:14:55;6.77;;;5.77;;
6251;SDS011;3159;52.414;9.784;2023-04-24T08:17:23;7.70;;;6.20;;
6251;SDS011;3159;52.414;9.784;2023-04-24T08:19:50;7.53;;;6.83;;
6251;SDS011;3159;52.414;9.784;2023-04-24T08:22:18;7.53;;;6.53;;
6251;SDS011;3159;52.414;9.784;2023-04-24T08:24:45;10.23;;;6.83;;
6251;SDS011;3159;52.414;9.784;2023-04-24T08:27:12;8.17;;;7.17;;
6251;SDS011;3159;52.414;9.784;2023-04-24T08:29:39;8.50;;;6.20;;
6251;SDS011;3159;52.414;9.784;2023-04-24T08:32:06;7.10;;;6.03;;
6251;SDS011;3159;52.414;9.784;2023-04-24T08:34:34;7.37;;;6.57;;
6251;SDS011;3159;52.414;9.784;2023-04-24T08:37:01;8.50;;;6.00;;
6251;SDS011;3159;52.414;9.784;2023-04-24T08:39:28;7.80;;;6.37;;
6251;SDS011;3159;52.414;9.784;2023-04-24T08:41:55;10.70;;;5.97;;
6251;SDS011;3159;52.414;9.784;2023-04-24T08:44:22;6.83;;;6.13;;
6251;SDS011;3159;52.414;9.784;2023-04-24T08:46:49;6.50;;;5.60;;
6251;SDS011;3159;52.414;9.784;2023-04-24T08:49:17;7.20;;;5.40;;
6251;SDS011;3159;52.414;9.784;2023-04-24T08:51:46;5.93;;;5.17;;
6251;SDS011;3159;52.414;9.784;2023-04-24T08:54:14;5.77;;;5.20;;
6251;SDS011;3159;52.414;9.784;2023-04-24T08:56:41;5.90;;;5.30;;
6251;SDS011;3159;52.414;9.784;2023-04-24T08:59:10;5.50;;;4.90;;
6251;SDS011;3159;52.414;9.784;2023-04-24T09:01:38;5.20;;;4.70;;
6251;SDS011;3159;52.414;9.784;2023-04-24T09:04:06;8.40;;;4.67;;
6251;SDS011;3159;52.414;9.784;2023-04-24T09:06:35;4.87;;;4.30;;
6251;SDS011;3159;52.414;9.784;2023-04-24T09:09:04;4.77;;;4.10;;
6251;SDS011;3159;52.414;9.784;2023-04-24T09:11:31;5.27;;;4.00;;
6251;SDS011;3159;52.414;9.784;2023-04-24T09:13:58;4.27;;;3.40;;
6251;SDS011;3159;52.414;9.784;2023-04-24T09:16:26;5.73;;;3.20;;
6251;SDS011;3159;52.414;9.784;2023-04-24T09:18:54;4.37;;;3.53;;
6251;SDS011;3159;52.414;9.784;2023-04-24T09:21:22;4.43;;;3.47;;
6251;SDS011;3159;52.414;9.784;2023-04-24T09:23:57;4.43;;;3.33;;
6251;SDS011;3159;52.414;9.784;2023-04-24T09:26:26;5.03;;;2.90;;
6251;SDS011;3159;52.414;9.784;2023-04-24T09:28:56;3.50;;;3.17;;
6251;SDS011;3159;52.414;9.784;2023-04-24T09:31:24;7.67;;;3.50;;
6251;SDS011;3159;52.414;9.784;2023-04-24T09:33:54;4.53;;;2.90;;
6251;SDS011;3159;52.414;9.784;2023-04-24T09:36:26;3.00;;;2.70;;
6251;SDS011;3159;52.414;9.784;2023-04-24T09:38:55;3.20;;;2.90;;
6251;SDS011;3159;52.414;9.784;2023-04-24T09:41:24;4.07;;;3.07;;
6251;SDS011;3159;52.414;9.784;2023-04-24T09:43:54;3.30;;;2.83;;
6251;SDS011;3159;52.414;9.784;2023-04-24T09:46:28;4.70;;;3.23;;
6251;SDS011;3159;52.414;9.784;2023-04-24T09:48:56;3.37;;;3.07;;
6251;SDS011;3159;52.414;9.784;2023-04-24T09:51:33;4.27;;;3.00;;
6251;SDS011;3159;52.414;9.784;2023-04-24T09:54:01;3.83;;;3.40;;
6251;SDS011;3159;52.414;9.784;2023-04-24T09:56:29;3.97;;;3.57;;
6251;SDS011;3159;52.414;9.784;2023-04-24T09:59:04;3.03;;;2.83;;
6251;SDS011;3159;52.414;9.784;2023-04-24T10:01:32;3.87;;;3.23;;
6251;SDS011;3159;52.414;9.784;2023-04-24T10:03:59;4.23;;;3.13;;
6251;SDS011;3159;52.414;9.784;2023-04-24T10:06:31;3.57;;;3.27;;
6251;SDS011;3159;52.414;9.784;2023-04-24T10:08:59;3.77;;;2.87;;
6251;SDS011;3159;52.414;9.784;2023-04-24T10:11:26;3.77;;;3.10;;
6251;SDS011;3159;52.414;9.784;2023-04-24T10:13:55;3.73;;;2.97;;
6251;SDS011;3159;52.414;9.784;2023-04-24T10:16:22;3.57;;;3.10;;
6251;SDS011;3159;52.414;9.784;2023-04-24T10:18:52;3.67;;;2.73;;
6251;SDS011;3159;52.414;9.784;2023-04-24T10:21:19;3.93;;;3.10;;
6251;SDS011;3159;52.414;9.784;2023-04-24T10:23:46;3.23;;;2.93;;
6251;SDS011;3159;52.414;9.784;2023-04-24T10:26:15;4.03;;;3.40;;
6251;SDS011;3159;52.414;9.784;2023-04-24T10:28:43;3.20;;;2.90;;
6251;SDS011;3159;52.414;9.784;2023-04-24T10:31:13;3.30;;;2.97;;
6251;SDS011;3159;52.414;9.784;2023-04-24T10:33:41;4.00;;;2.97;;
6251;SDS011;3159;52.414;9.784;2023-04-24T10:36:09;3.33;;;3.03;;
6251;SDS011;3159;52.414;9.784;2023-04-24T10:38:38;2.70;;;2.50;;
6251;SDS011;3159;52.414;9.784;2023-04-24T10:41:08;3.70;;;2.67;;
6251;SDS011;3159;52.414;9.784;2023-04-24T10:43:40;2.80;;;2.60;;
6251;SDS011;3159;52.414;9.784;2023-04-24T10:46:08;7.13;;;2.67;;
6251;SDS011;3159;52.414;9.784;2023-04-24T10:48:37;2.60;;;2.40;;
6251;SDS011;3159;52.414;9.784;2023-04-24T10:51:10;2.37;;;2.17;;
6251;SDS011;3159;52.414;9.784;2023-04-24T10:53:39;3.10;;;2.47;;
6251;SDS011;3159;52.414;9.784;2023-04-24T10:56:06;2.57;;;2.37;;
6251;SDS011;3159;52.414;9.784;2023-04-24T10:58:38;3.60;;;2.00;;
6251;SDS011;3159;52.414;9.784;2023-04-24T11:01:06;2.77;;;2.03;;
6251;SDS011;3159;52.414;9.784;2023-04-24T11:03:33;2.17;;;1.80;;
6251;SDS011;3159;52.414;9.784;2023-04-24T11:06:03;1.70;;;1.60;;
6251;SDS011;3159;52.414;9.784;2023-04-24T11:08:32;2.00;;;1.80;;
6251;SDS011;3159;52.414;9.784;2023-04-24T11:11:07;2.03;;;1.80;;
6251;SDS011;3159;52.414;9.784;2023-04-24T11:16:29;2.33;;;2.10;;
6251;SDS011;3159;52.414;9.784;2023-04-24T11:19:02;2.17;;;1.97;;
6251;SDS011;3159;52.414;9.784;2023-04-24T11:21:41;2.23;;;1.90;;
6251;SDS011;3159;52.414;9.784;2023-04-24T11:24:23;3.40;;;2.00;;
6251;SDS011;3159;52.414;9.784;2023-04-24T11:26:58;2.13;;;1.60;;
6251;SDS011;3159;52.414;9.784;2023-04-24T11:29:39;2.30;;;2.10;;
6251;SDS011;3159;52.414;9.784;2023-04-24T11:32:23;2.37;;;1.97;;
6251;SDS011;3159;52.414;9.784;2023-04-24T11:34:52;1.80;;;1.70;;
6251;SDS011;3159;52.414;9.784;2023-04-24T11:37:22;2.10;;;1.90;;
6251;SDS011;3159;52.414;9.784;2023-04-24T11:39:50;2.20;;;1.50;;
6251;SDS011;3159;52.414;9.784;2023-04-24T11:42:18;2.27;;;1.60;;
6251;SDS011;3159;52.414;9.784;2023-04-24T11:44:47;1.53;;;1.20;;
6251;SDS011;3159;52.414;9.784;2023-04-24T11:47:15;1.47;;;1.30;;
6251;SDS011;3159;52.414;9.784;2023-04-24T11:49:42;2.33;;;1.10;;
6251;SDS011;3159;52.414;9.784;2023-04-24T11:52:09;1.40;;;1.10;;
6251;SDS011;3159;52.414;9.784;2023-04-24T11:54:37;1.23;;;1.00;;
6251;SDS011;3159;52.414;9.784;2023-04-24T11:57:04;1.80;;;1.27;;
6251;SDS011;3159;52.414;9.784;2023-04-24T11:59:35;1.07;;;1.07;;
6251;SDS011;3159;52.414;9.784;2023-04-24T12:02:02;1.53;;;1.20;;
6251;SDS011;3159;52.414;9.784;2023-04-24T12:04:38;1.00;;;1.00;;
6251;SDS011;3159;52.414;9.784;2023-04-24T12:07:06;2.50;;;1.10;;
6251;SDS011;3159;52.414;9.784;2023-04-24T12:09:41;1.13;;;0.90;;
6251;SDS011;3159;52.414;9.784;2023-04-24T12:12:09;1.67;;;1.03;;
6251;SDS011;3159;52.414;9.784;2023-04-24T12:14:44;1.30;;;1.00;;
6251;SDS011;3159;52.414;9.784;2023-04-24T12:17:13;1.10;;;1.00;;
6251;SDS011;3159;52.414;9.784;2023-04-24T12:19:44;0.73;;;0.60;;
6251;SDS011;3159;52.414;9.784;2023-04-24T12:22:13;0.80;;;0.80;;
6251;SDS011;3159;52.414;9.784;2023-04-24T12:27:23;0.63;;;0.63;;
6251;SDS011;3159;52.414;9.784;2023-04-24T12:29:53;0.80;;;0.60;;
6251;SDS011;3159;52.414;9.784;2023-04-24T12:32:22;3.60;;;1.00;;
6251;SDS011;3159;52.414;9.784;2023-04-24T12:34:50;0.80;;;0.70;;
6251;SDS011;3159;52.414;9.784;2023-04-24T12:37:17;1.03;;;0.80;;
6251;SDS011;3159;52.414;9.784;2023-04-24T12:39:46;1.30;;;0.80;;
6251;SDS011;3159;52.414;9.784;2023-04-24T12:42:26;0.60;;;0.60;;
6251;SDS011;3159;52.414;9.784;2023-04-24T12:44:55;1.57;;;0.80;;
6251;SDS011;3159;52.414;9.784;2023-04-24T12:47:23;3.50;;;1.00;;
6251;SDS011;3159;52.414;9.784;2023-04-24T12:49:50;1.37;;;1.07;;
6251;SDS011;3159;52.414;9.784;2023-04-24T12:52:17;0.97;;;0.97;;
6251;SDS011;3159;52.414;9.784;2023-04-24T12:54:45;1.60;;;1.13;;
6251;SDS011;3159;52.414;9.784;2023-04-24T12:57:13;1.10;;;1.10;;
6251;SDS011;3159;52.414;9.784;2023-04-24T12:59:40;1.73;;;1.30;;
6251;SDS011;3159;52.414;9.784;2023-04-24T13:02:07;1.33;;;1.23;;
6251;SDS011;3159;52.414;9.784;2023-04-24T13:04:35;1.73;;;1.60;;
6251;SDS011;3159;52.414;9.784;2023-04-24T13:07:02;1.33;;;1.03;;
6251;SDS011;3159;52.414;9.784;2023-04-24T13:09:29;0.90;;;0.90;;
6251;SDS011;3159;52.414;9.784;2023-04-24T13:11:56;1.07;;;1.00;;
6251;SDS011;3159;52.414;9.784;2023-04-24T13:14:25;1.17;;;1.07;;
6251;SDS011;3159;52.414;9.784;2023-04-24T13:16:52;1.70;;;1.03;;
6251;SDS011;3159;52.414;9.784;2023-04-24T13:19:18;1.40;;;1.30;;
6251;SDS011;3159;52.414;9.784;2023-04-24T13:21:45;1.97;;;1.27;;
6251;SDS011;3159;52.414;9.784;2023-04-24T13:24:12;1.67;;;1.20;;
6251;SDS011;3159;52.414;9.784;2023-04-24T13:26:40;1.20;;;1.13;;
6251;SDS011;3159;52.414;9.784;2023-04-24T13:29:07;1.00;;;1.00;;
6251;SDS011;3159;52.414;9.784;2023-04-24T13:31:36;1.73;;;1.23;;
6251;SDS011;3159;52.414;9.784;2023-04-24T13:34:03;1.20;;;1.17;;
6251;SDS011;3159;52.414;9.784;2023-04-24T13:36:30;1.23;;;1.13;;
6251;SDS011;3159;52.414;9.784;2023-04-24T13:38:56;1.20;;;1.20;;
6251;SDS011;3159;52.414;9.784;2023-04-24T13:41:23;0.93;;;0.93;;
6251;SDS011;3159;52.414;9.784;2023-04-24T13:43:50;1.30;;;1.20;;
6251;SDS011;3159;52.414;9.784;2023-04-24T13:46:17;2.17;;;1.10;;
6251;SDS011;3159;52.414;9.784;2023-04-24T13:48:45;1.17;;;1.07;;
6251;SDS011;3159;52.414;9.784;2023-04-24T13:51:12;0.80;;;0.80;;
6251;SDS011;3159;52.414;9.784;2023-04-24T13:53:39;0.90;;;0.90;;
6251;SDS011;3159;52.414;9.784;2023-04-24T13:56:06;1.80;;;0.93;;
6251;SDS011;3159;52.414;9.784;2023-04-24T13:58:34;1.20;;;1.10;;
6251;SDS011;3159;52.414;9.784;2023-04-24T14:01:01;0.80;;;0.80;;
6251;SDS011;3159;52.414;9.784;2023-04-24T14:03:29;1.40;;;1.07;;
6251;SDS011;3159;52.414;9.784;2023-04-24T14:05:57;0.63;;;0.63;;
6251;SDS011;3159;52.414;9.784;2023-04-24T14:08:24;1.40;;;1.23;;
6251;SDS011;3159;52.414;9.784;2023-04-24T14:10:51;0.53;;;0.53;;
6251;SDS011;3159;52.414;9.784;2023-04-24T14:13:18;0.50;;;0.40;;
6251;SDS011;3159;52.414;9.784;2023-04-24T14:15:45;0.50;;;0.50;;
6251;SDS011;3159;52.414;9.784;2023-04-24T14:18:12;0.57;;;0.57;;
6251;SDS011;3159;52.414;9.784;2023-04-24T14:20:39;1.00;;;0.80;;
6251;SDS011;3159;52.414;9.784;2023-04-24T14:23:07;1.17;;;0.77;;
6251;SDS011;3159;52.414;9.784;2023-04-24T14:25:34;1.47;;;0.90;;
6251;SDS011;3159;52.414;9.784;2023-04-24T14:28:01;2.33;;;1.10;;
6251;SDS011;3159;52.414;9.784;2023-04-24T14:30:28;1.13;;;1.03;;
6251;SDS011;3159;52.414;9.784;2023-04-24T14:32:55;1.33;;;1.23;;
6251;SDS011;3159;52.414;9.784;2023-04-24T14:35:22;2.47;;;1.20;;
6251;SDS011;3159;52.414;9.784;2023-04-24T14:37:49;3.30;;;1.77;;
6251;SDS011;3159;52.414;9.784;2023-04-24T14:40:17;2.43;;;1.67;;
6251;SDS011;3159;52.414;9.784;2023-04-24T14:42:44;1.90;;;1.63;;
6251;SDS011;3159;52.414;9.784;2023-04-24T14:45:11;2.90;;;1.83;;
6251;SDS011;3159;52.414;9.784;2023-04-24T14:47:38;1.90;;;1.77;;
6251;SDS011;3159;52.414;9.784;2023-04-24T14:50:05;2.13;;;1.93;;
6251;SDS011;3159;52.414;9.784;2023-04-24T14:52:34;3.57;;;2.00;;
6251;SDS011;3159;52.414;9.784;2023-04-24T14:55:01;4.83;;;2.20;;
6251;SDS011;3159;52.414;9.784;2023-04-24T14:57:29;3.00;;;2.10;;
6251;SDS011;3159;52.414;9.784;2023-04-24T14:59:56;3.50;;;2.40;;
6251;SDS011;3159;52.414;9.784;2023-04-24T15:02:23;4.30;;;2.23;;
6251;SDS011;3159;52.414;9.784;2023-04-24T15:04:50;2.77;;;1.80;;
6251;SDS011;3159;52.414;9.784;2023-04-24T15:07:17;3.77;;;2.30;;
6251;SDS011;3159;52.414;9.784;2023-04-24T15:09:44;5.00;;;2.47;;
6251;SDS011;3159;52.414;9.784;2023-04-24T15:12:12;8.20;;;3.10;;
6251;SDS011;3159;52.414;9.784;2023-04-24T15:14:40;4.60;;;2.37;;
6251;SDS011;3159;52.414;9.784;2023-04-24T15:17:07;3.13;;;2.63;;
6251;SDS011;3159;52.414;9.784;2023-04-24T15:19:34;4.13;;;2.50;;
6251;SDS011;3159;52.414;9.784;2023-04-24T15:22:01;5.07;;;2.40;;
6251;SDS011;3159;52.414;9.784;2023-04-24T15:24:28;4.90;;;2.63;;